KMZZ/MZZ METAR and TAF weather

Enter ICAO airport designator
Station Type Date Time Source
KMZZ METAR 2019/12/14 17:15 UTC NOAA

KMZZ 141715Z AUTO 28008KT 5SM BR SCT006 SCT031 OVC090 03/03 A2968 RMK AO2 T00310027


Station Type Date Time Source
KMZZ Decoded METAR 2019/12/14 17:15 UTC NOAA

Station name not available
Dec 14, 2019 - 12:15 PM EST / 2019.12.14 1715 UTC
Wind: from the W (280 degrees) at 9 MPH (8 KT):0
Visibility: 5 mile(s):0
Sky conditions: overcast
Weather: mist
Temperature: 37.6 F (3.1 C)
Dew Point: 36.9 F (2.7 C)
Relative Humidity: 97%
Pressure (altimeter): 29.68 in. Hg (1005 hPa)
ob: KMZZ 141715Z AUTO 28008KT 5SM BR SCT006 SCT031 OVC090 03/03 A2968 RMK AO2 T00310027
cycle: 17

Station Type Date Time Source
KMZZ TAF UTC NOAA

Error!

Example: see airport list